Time;durP1;ratioP1;P1;durP2;ratioP2;P2;SDS_P1;SDS_P2;PMS_P1;PMS_P2;Temp;Humidity;BMP_temperature;BMP_pressure;BME280_temperature;BME280_humidity;BME280_pressure;Samples;Min_cycle;Max_cycle;Signal;HPM_P1;HPM_P2
2022/07/02 00:01:19;;;;;;;7.35;2.22;;;14.90;99.90;;;;;;5010281;28;20495;-65
2022/07/02 00:03:51;;;;;;;4.78;2.22;;;14.80;99.90;;;;;;5012123;28;20052;-66
2022/07/02 00:06:20;;;;;;;6.55;1.95;;;14.90;99.90;;;;;;5009950;28;20451;-65
2022/07/02 00:08:50;;;;;;;5.80;2.03;;;14.90;99.90;;;;;;5007882;28;20085;-67
2022/07/02 00:11:20;;;;;;;5.85;2.00;;;14.90;99.90;;;;;;5011144;28;20465;-66
2022/07/02 00:13:48;;;;;;;4.47;2.08;;;14.80;99.90;;;;;;5011177;28;20046;-67
2022/07/02 00:16:14;;;;;;;;;;;14.80;99.90;;;;;;5008481;28;20064;-67
2022/07/02 00:18:41;;;;;;;4.90;2.45;;;14.80;99.90;;;;;;5008141;28;19972;-66
2022/07/02 00:21:07;;;;;;;7.57;2.28;;;14.80;99.90;;;;;;5009389;28;20660;-66
2022/07/02 00:23:33;;;;;;;6.07;2.70;;;14.70;99.90;;;;;;5009677;28;20096;-65
2022/07/02 00:26:08;;;;;;;6.65;2.50;;;14.80;99.90;;;;;;5024541;28;20026;-66
2022/07/02 00:28:37;;;;;;;9.43;2.88;;;14.80;99.90;;;;;;5009224;28;20046;-66
2022/07/02 00:31:03;;;;;;;4.25;2.13;;;14.70;99.90;;;;;;5008294;28;20053;-65
2022/07/02 00:33:31;;;;;;;7.40;2.45;;;14.80;99.90;;;;;;5012241;28;20049;-65
2022/07/02 00:35:58;;;;;;;5.43;2.40;;;14.80;99.90;;;;;;5008719;28;20057;-66
2022/07/02 00:38:24;;;;;;;5.13;2.50;;;14.80;99.90;;;;;;5000774;28;20139;-66
2022/07/02 00:40:53;;;;;;;9.23;2.78;;;14.70;99.90;;;;;;5009498;28;20441;-65
2022/07/02 00:43:20;;;;;;;5.10;2.72;;;14.70;99.90;;;;;;5009188;28;20057;-66
2022/07/02 00:45:50;;;;;;;6.22;2.47;;;14.70;99.90;;;;;;5008610;28;20045;-66
2022/07/02 00:48:16;;;;;;;7.65;2.88;;;14.70;99.90;;;;;;5007975;28;20053;-66
2022/07/02 00:50:41;;;;;;;4.30;2.35;;;14.70;99.90;;;;;;5010402;28;20515;-66
2022/07/02 00:53:07;;;;;;;6.85;2.63;;;14.70;99.90;;;;;;4999859;28;20041;-65
2022/07/02 00:55:33;;;;;;;6.93;2.30;;;14.70;99.90;;;;;;5007807;28;20081;-65
2022/07/02 00:57:59;;;;;;;5.55;2.50;;;14.60;99.90;;;;;;5007683;28;20042;-66
2022/07/02 01:00:25;;;;;;;8.60;2.95;;;14.60;99.90;;;;;;5009246;28;20054;-66
2022/07/02 01:02:52;;;;;;;5.65;2.80;;;14.60;99.90;;;;;;5018762;28;20041;-66
2022/07/02 01:05:22;;;;;;;8.13;2.70;;;14.50;99.90;;;;;;5004125;28;20050;-68
2022/07/02 01:10:16;;;;;;;9.77;2.83;;;14.50;99.90;;;;;;5004666;28;20407;-66
2022/07/02 01:10:47;;;;;;;6.40;2.50;;;14.50;99.90;;;;;;5007860;28;20046;-65
2022/07/02 01:13:15;;;;;;;12.35;3.10;;;14.50;99.90;;;;;;5011207;28;20396;-66
2022/07/02 01:15:41;;;;;;;5.97;2.80;;;14.50;99.90;;;;;;5007200;28;20494;-66
2022/07/02 01:18:07;;;;;;;7.50;2.78;;;14.50;99.90;;;;;;5009503;28;20169;-67
2022/07/02 01:20:33;;;;;;;5.35;2.78;;;14.40;99.90;;;;;;5006135;28;20042;-66
2022/07/02 01:22:59;;;;;;;7.57;2.53;;;14.40;99.90;;;;;;5004184;28;20042;-66
2022/07/02 01:25:24;;;;;;;5.63;2.70;;;14.40;99.90;;;;;;5000706;28;20054;-66
2022/07/02 01:27:53;;;;;;;4.68;2.50;;;14.40;99.90;;;;;;5009778;28;20188;-66
2022/07/02 01:30:19;;;;;;;6.57;2.30;;;14.40;99.90;;;;;;5007761;28;20548;-68
2022/07/02 01:32:45;;;;;;;11.20;3.33;;;14.40;99.90;;;;;;5007547;28;20176;-67
2022/07/02 01:35:11;;;;;;;5.85;2.75;;;14.30;99.90;;;;;;5011076;28;20049;-66
2022/07/02 01:37:38;;;;;;;6.30;2.80;;;14.30;99.90;;;;;;5006025;28;20046;-66
2022/07/02 01:40:04;;;;;;;4.55;2.40;;;14.30;99.90;;;;;;5009243;28;20046;-65
2022/07/02 01:42:30;;;;;;;7.95;2.80;;;14.30;99.90;;;;;;5006822;28;20042;-66
2022/07/02 01:44:56;;;;;;;6.68;2.72;;;14.30;99.90;;;;;;5008795;28;20152;-67
2022/07/02 01:47:22;;;;;;;6.30;2.95;;;14.20;99.90;;;;;;5022282;28;20052;-66
2022/07/02 01:49:48;;;;;;;8.57;3.10;;;14.20;99.90;;;;;;5008167;28;20487;-67
2022/07/02 01:52:15;;;;;;;5.60;2.65;;;14.20;99.90;;;;;;5005121;28;20096;-66
2022/07/02 01:54:41;;;;;;;7.18;2.88;;;14.20;99.90;;;;;;5006753;28;20049;-66
2022/07/02 01:57:07;;;;;;;7.65;2.78;;;14.20;99.90;;;;;;5009325;28;20132;-65
2022/07/02 01:59:33;;;;;;;8.18;2.97;;;14.20;99.90;;;;;;5012801;28;20099;-66
2022/07/02 02:02:03;;;;;;;9.43;2.80;;;14.20;99.90;;;;;;5011106;28;20157;-66
2022/07/02 02:04:29;;;;;;;7.18;2.80;;;14.10;99.90;;;;;;5008351;28;20524;-67
2022/07/02 02:06:55;;;;;;;6.95;2.67;;;14.10;99.90;;;;;;5022520;28;20093;-67
2022/07/02 02:09:20;;;;;;;4.85;2.63;;;14.10;99.90;;;;;;5007494;28;20069;-68
2022/07/02 02:11:47;;;;;;;6.97;2.72;;;14.10;99.90;;;;;;5013480;28;20091;-66
2022/07/02 02:14:13;;;;;;;5.53;3.03;;;14.10;99.90;;;;;;5010448;28;20475;-65
2022/07/02 02:16:39;;;;;;;5.85;2.75;;;14.10;99.90;;;;;;5007172;28;20133;-65
2022/07/02 02:19:06;;;;;;;7.60;3.13;;;14.10;99.90;;;;;;5005135;28;20322;-67
2022/07/02 02:21:31;;;;;;;9.32;2.92;;;14.10;99.90;;;;;;5010048;28;20046;-66
2022/07/02 02:23:58;;;;;;;11.20;3.17;;;14.00;99.90;;;;;;5013319;28;20069;-66
2022/07/02 02:26:24;;;;;;;6.32;3.05;;;14.00;99.90;;;;;;5009063;28;20212;-66
2022/07/02 02:28:51;;;;;;;8.82;2.95;;;14.00;99.90;;;;;;5012657;28;20077;-66
2022/07/02 02:31:16;;;;;;;11.77;3.88;;;14.00;99.90;;;;;;5011753;28;20049;-67
2022/07/02 02:33:42;;;;;;;8.27;3.03;;;13.90;99.90;;;;;;5008912;28;20129;-67
2022/07/02 02:36:11;;;;;;;9.45;3.17;;;14.00;99.90;;;;;;5012235;28;20045;-65
2022/07/02 02:38:36;;;;;;;6.82;2.80;;;13.90;99.90;;;;;;5011337;28;20108;-66
2022/07/02 02:41:05;;;;;;;7.78;2.90;;;13.90;99.90;;;;;;5010239;28;20042;-66
2022/07/02 02:43:35;;;;;;;12.07;3.55;;;13.90;99.90;;;;;;5012417;28;20089;-66
2022/07/02 02:46:01;;;;;;;6.93;2.70;;;13.90;99.90;;;;;;5011212;28;20042;-66
2022/07/02 02:48:28;;;;;;;9.05;3.53;;;13.90;99.90;;;;;;5010602;28;20149;-66
2022/07/02 02:50:54;;;;;;;7.65;3.08;;;13.90;99.90;;;;;;5027167;28;20042;-68
2022/07/02 02:53:22;;;;;;;7.32;2.67;;;13.80;99.90;;;;;;5010098;28;20113;-65
2022/07/02 02:55:48;;;;;;;9.88;3.33;;;13.90;99.90;;;;;;5011047;28;20077;-67
2022/07/02 02:58:14;;;;;;;8.00;3.58;;;13.90;99.90;;;;;;5012285;28;20092;-66
2022/07/02 03:00:39;;;;;;;8.40;2.70;;;13.90;99.90;;;;;;5009695;28;20034;-66
2022/07/02 03:03:08;;;;;;;13.63;3.25;;;13.90;99.90;;;;;;5008890;28;20496;-65
2022/07/02 03:05:34;;;;;;;7.22;2.80;;;13.90;99.90;;;;;;5008258;28;20476;-66
2022/07/02 03:08:00;;;;;;;6.30;2.90;;;13.90;99.90;;;;;;5010829;28;20046;-67
2022/07/02 03:10:25;;;;;;;7.85;2.70;;;13.90;99.90;;;;;;5012961;28;20057;-65
2022/07/02 03:12:51;;;;;;;8.05;2.70;;;13.90;99.90;;;;;;5011442;28;20054;-66
2022/07/02 03:15:17;;;;;;;8.52;2.78;;;13.90;99.90;;;;;;5005831;28;20041;-66
2022/07/02 03:17:43;;;;;;;8.25;3.15;;;13.90;99.90;;;;;;5011228;28;20046;-67
2022/07/02 03:20:09;;;;;;;10.88;2.90;;;13.90;99.90;;;;;;5012412;28;20038;-66
2022/07/02 03:22:35;;;;;;;8.48;3.10;;;13.90;99.90;;;;;;5011994;28;20037;-65
2022/07/02 03:25:00;;;;;;;8.60;2.63;;;13.80;99.90;;;;;;5009574;28;21522;-66
2022/07/02 03:27:26;;;;;;;5.90;3.00;;;13.80;99.90;;;;;;5031842;28;20054;-67
2022/07/02 03:29:52;;;;;;;11.55;3.08;;;13.80;99.90;;;;;;5012941;28;20038;-66
2022/07/02 03:32:18;;;;;;;11.20;3.15;;;13.80;99.90;;;;;;5009978;28;20060;-65
2022/07/02 03:34:44;;;;;;;9.00;3.10;;;13.80;99.90;;;;;;5012310;28;20124;-67
2022/07/02 03:37:10;;;;;;;7.20;3.40;;;13.80;99.90;;;;;;5012690;28;20038;-66
2022/07/02 03:39:36;;;;;;;8.68;3.08;;;13.90;99.90;;;;;;5010056;28;20049;-66
2022/07/02 03:42:02;;;;;;;9.18;3.08;;;13.80;99.90;;;;;;5012150;28;20045;-66
2022/07/02 03:44:27;;;;;;;11.60;3.10;;;13.90;99.90;;;;;;5011393;28;20042;-67
2022/07/02 03:46:53;;;;;;;11.98;3.33;;;13.90;99.90;;;;;;5006916;28;20440;-65
2022/07/02 03:49:19;;;;;;;10.98;3.15;;;13.90;99.90;;;;;;5009716;28;20042;-67
2022/07/02 03:51:44;;;;;;;9.32;2.97;;;13.90;99.90;;;;;;5010887;28;20099;-67
2022/07/02 03:54:13;;;;;;;8.25;3.35;;;13.90;99.90;;;;;;5011288;28;20038;-66
2022/07/02 03:56:38;;;;;;;10.60;3.22;;;13.90;99.90;;;;;;5008881;28;20044;-66
2022/07/02 03:59:04;;;;;;;8.90;3.05;;;13.90;99.90;;;;;;4991720;28;20041;-67
2022/07/02 04:01:30;;;;;;;6.60;3.28;;;13.90;99.90;;;;;;5000540;28;20088;-65
2022/07/02 04:03:55;;;;;;;7.00;3.20;;;13.90;99.90;;;;;;5007414;28;20044;-67
2022/07/02 04:06:21;;;;;;;8.18;3.42;;;13.90;99.90;;;;;;5008179;28;20046;-66
2022/07/02 04:08:47;;;;;;;12.70;3.55;;;13.90;99.90;;;;;;5021042;28;20053;-66
2022/07/02 04:11:12;;;;;;;10.27;3.35;;;13.90;99.90;;;;;;5010060;28;20042;-65
2022/07/02 04:13:38;;;;;;;12.88;3.45;;;13.90;99.90;;;;;;5022105;28;20049;-65
2022/07/02 04:16:07;;;;;;;12.32;4.00;;;13.90;99.90;;;;;;5003184;28;20534;-66
2022/07/02 04:18:33;;;;;;;11.95;4.45;;;13.90;99.90;;;;;;5008762;28;20045;-66
2022/07/02 04:20:59;;;;;;;7.72;3.30;;;14.00;99.90;;;;;;5011026;28;20086;-66
2022/07/02 04:23:24;;;;;;;8.57;3.40;;;14.00;99.90;;;;;;5009353;28;20033;-67
2022/07/02 04:25:50;;;;;;;10.73;3.78;;;14.00;99.90;;;;;;5022196;28;20080;-65
2022/07/02 04:28:16;;;;;;;10.80;3.80;;;14.00;99.90;;;;;;5008275;28;20048;-66
2022/07/02 04:30:41;;;;;;;8.48;3.50;;;14.10;99.90;;;;;;5008627;28;20070;-66
2022/07/02 04:33:07;;;;;;;12.25;3.53;;;14.10;99.90;;;;;;5007146;28;20034;-66
2022/07/02 04:35:33;;;;;;;10.57;3.22;;;14.10;99.90;;;;;;5006646;28;20112;-67
2022/07/02 04:37:58;;;;;;;10.05;3.55;;;14.10;99.90;;;;;;5010606;28;20088;-66
2022/07/02 04:40:24;;;;;;;10.93;3.50;;;14.20;99.90;;;;;;5014738;28;20042;-66
2022/07/02 04:42:50;;;;;;;8.55;3.45;;;14.20;99.90;;;;;;5011251;28;20389;-67
2022/07/02 04:45:15;;;;;;;11.00;3.72;;;14.20;99.90;;;;;;5007078;28;20034;-65
2022/07/02 04:47:41;;;;;;;13.27;3.50;;;14.30;99.90;;;;;;5005935;28;20153;-67
2022/07/02 04:50:08;;;;;;;9.90;4.00;;;14.30;99.90;;;;;;5017138;28;20030;-65
2022/07/02 04:52:33;;;;;;;10.10;3.75;;;14.40;99.90;;;;;;5007876;28;20042;-66
2022/07/02 04:54:59;;;;;;;8.73;3.63;;;14.50;99.90;;;;;;5008978;28;20092;-65
2022/07/02 04:57:25;;;;;;;9.63;4.07;;;14.50;99.90;;;;;;5006552;28;20104;-66
2022/07/02 04:59:50;;;;;;;12.38;4.80;;;14.60;99.90;;;;;;5009720;28;20034;-67
2022/07/02 05:02:16;;;;;;;12.27;4.30;;;14.60;99.90;;;;;;5006235;28;20065;-66
2022/07/02 05:04:42;;;;;;;14.30;5.70;;;14.70;99.90;;;;;;5004685;28;20042;-66
2022/07/02 05:07:08;;;;;;;11.15;5.03;;;14.70;99.90;;;;;;5008471;28;20172;-67
2022/07/02 05:09:33;;;;;;;9.02;5.28;;;14.80;99.90;;;;;;5009357;28;20029;-66
2022/07/02 05:12:00;;;;;;;9.60;5.43;;;14.90;99.90;;;;;;5005018;28;20038;-66
2022/07/02 05:14:26;;;;;;;9.18;5.88;;;14.90;99.90;;;;;;5009092;28;20042;-68
2022/07/02 05:16:52;;;;;;;12.60;7.38;;;14.90;99.90;;;;;;5006345;28;20044;-67
2022/07/02 05:19:18;;;;;;;10.27;6.22;;;15.00;99.90;;;;;;5006706;28;20042;-67
2022/07/02 05:21:44;;;;;;;10.93;6.38;;;15.00;99.90;;;;;;5009577;28;20053;-66
2022/07/02 05:24:10;;;;;;;14.15;6.40;;;15.00;99.90;;;;;;5006444;28;20041;-66
2022/07/02 05:26:36;;;;;;;10.57;6.20;;;15.10;99.90;;;;;;5021658;28;20103;-67
2022/07/02 05:29:03;;;;;;;9.85;6.18;;;15.10;99.90;;;;;;5009484;28;20121;-66
2022/07/02 05:31:29;;;;;;;11.55;5.50;;;15.20;99.90;;;;;;5007219;28;20061;-67
2022/07/02 05:33:54;;;;;;;12.60;6.10;;;15.30;99.90;;;;;;5016361;28;20056;-66
2022/07/02 05:36:20;;;;;;;11.68;5.15;;;15.30;99.90;;;;;;5014246;28;20504;-66
2022/07/02 05:38:46;;;;;;;10.48;5.50;;;15.30;99.90;;;;;;5012278;28;20448;-67
2022/07/02 05:41:11;;;;;;;10.73;5.60;;;15.40;99.90;;;;;;5014793;28;20038;-66
2022/07/02 05:43:37;;;;;;;11.65;5.68;;;15.40;99.90;;;;;;5012575;28;20042;-67
2022/07/02 05:46:06;;;;;;;9.52;5.60;;;15.50;99.90;;;;;;5011219;28;20125;-67
2022/07/02 05:48:31;;;;;;;9.30;5.43;;;15.60;99.90;;;;;;5013196;28;20046;-67
2022/07/02 05:50:57;;;;;;;12.77;5.07;;;15.50;99.90;;;;;;5012081;28;20471;-68
2022/07/02 05:53:23;;;;;;;16.63;5.63;;;15.60;99.90;;;;;;5011309;28;20709;-65
2022/07/02 05:55:49;;;;;;;13.18;5.30;;;15.70;99.90;;;;;;5012948;28;20498;-66
2022/07/02 05:58:14;;;;;;;16.95;5.20;;;15.80;99.90;;;;;;4997372;28;20081;-66
2022/07/02 06:00:43;;;;;;;11.70;4.93;;;15.90;99.90;;;;;;5026017;28;20049;-65
2022/07/02 06:03:09;;;;;;;14.50;4.60;;;15.90;99.90;;;;;;5012077;28;20041;-66
2022/07/02 06:08:18;;;;;;;8.63;4.63;;;16.00;99.90;;;;;;5007280;28;20057;-66
2022/07/02 06:10:44;;;;;;;7.63;4.50;;;16.10;99.90;;;;;;5013681;28;20053;-65
2022/07/02 06:13:10;;;;;;;13.13;4.82;;;16.20;99.90;;;;;;5010488;28;20424;-65
2022/07/02 06:15:35;;;;;;;15.23;4.53;;;16.40;99.90;;;;;;5010788;28;20504;-66
2022/07/02 06:18:01;;;;;;;8.45;4.28;;;16.80;99.90;;;;;;4988854;28;20117;-65
2022/07/02 06:20:28;;;;;;;10.45;4.10;;;17.40;99.90;;;;;;5010410;28;20045;-65
2022/07/02 06:22:53;;;;;;;10.07;3.95;;;17.80;99.90;;;;;;5011769;28;20065;-66
2022/07/02 06:25:19;;;;;;;8.50;3.97;;;17.80;99.90;;;;;;5010966;28;20037;-66
2022/07/02 06:27:45;;;;;;;8.13;3.97;;;17.60;99.90;;;;;;5012146;28;20081;-66
2022/07/02 06:30:11;;;;;;;13.38;4.15;;;17.60;99.90;;;;;;5007515;28;20073;-67
2022/07/02 06:32:37;;;;;;;6.82;3.60;;;17.50;99.90;;;;;;5011467;28;20058;-66
2022/07/02 06:35:03;;;;;;;9.13;3.72;;;17.50;99.90;;;;;;5014579;28;20042;-67
2022/07/02 06:37:29;;;;;;;10.50;3.83;;;17.50;99.90;;;;;;5012299;28;20129;-66
2022/07/02 06:39:55;;;;;;;5.32;3.28;;;17.50;99.90;;;;;;5011477;28;20129;-66
2022/07/02 06:42:22;;;;;;;10.30;3.67;;;17.50;99.90;;;;;;5027502;28;20073;-67
2022/07/02 06:44:50;;;;;;;11.13;3.13;;;17.60;99.90;;;;;;5012119;28;20070;-67
2022/07/02 06:47:17;;;;;;;8.45;3.72;;;17.70;99.90;;;;;;5012293;28;20037;-67
2022/07/02 06:49:43;;;;;;;7.82;3.20;;;17.80;99.90;;;;;;5012743;28;20046;-67
2022/07/02 06:52:09;;;;;;;10.52;3.67;;;17.80;99.90;;;;;;5009874;28;20451;-67
2022/07/02 06:54:36;;;;;;;7.63;3.53;;;17.90;99.90;;;;;;5010621;28;20049;-66
2022/07/02 06:57:05;;;;;;;6.25;2.75;;;18.10;99.90;;;;;;5010198;28;20092;-66
2022/07/02 06:59:32;;;;;;;6.75;2.90;;;18.20;99.90;;;;;;5011500;28;20042;-67
2022/07/02 07:01:57;;;;;;;7.85;2.53;;;18.30;99.90;;;;;;5008566;28;20046;-66
2022/07/02 07:04:26;;;;;;;9.15;2.67;;;18.40;99.90;;;;;;4990536;28;20046;-66
2022/07/02 07:07:00;;;;;;;4.93;2.45;;;18.50;99.90;;;;;;5011106;28;20041;-66
2022/07/02 07:09:27;;;;;;;6.90;2.30;;;18.60;99.90;;;;;;5010501;28;20057;-67
2022/07/02 07:11:54;;;;;;;8.85;2.40;;;18.70;99.90;;;;;;5010164;28;20125;-67
2022/07/02 07:14:20;;;;;;;5.63;2.10;;;18.80;99.90;;;;;;5011589;28;20045;-67
2022/07/02 07:16:45;;;;;;;8.20;2.20;;;18.90;99.90;;;;;;5009646;28;20049;-68
2022/07/02 07:19:11;;;;;;;7.88;2.03;;;18.80;99.90;;;;;;5009687;28;20044;-66
2022/07/02 07:21:41;;;;;;;7.65;2.22;;;19.00;99.90;;;;;;5007735;28;20045;-68
2022/07/02 07:24:07;;;;;;;8.13;2.65;;;19.10;99.90;;;;;;5007847;28;20045;-66
2022/07/02 07:26:34;;;;;;;8.15;3.03;;;19.20;99.90;;;;;;5004661;28;20045;-66
2022/07/02 07:29:05;;;;;;;8.90;2.20;;;19.20;99.90;;;;;;5006263;28;20427;-65
2022/07/02 07:31:33;;;;;;;5.88;2.17;;;19.20;99.90;;;;;;5008270;28;21675;-67
2022/07/02 07:33:59;;;;;;;7.82;2.25;;;19.30;99.90;;;;;;5010393;28;20049;-67
2022/07/02 07:36:26;;;;;;;7.30;2.17;;;19.30;99.90;;;;;;5014743;28;20069;-67
2022/07/02 07:38:55;;;;;;;6.53;2.10;;;19.40;99.90;;;;;;5011916;28;20093;-68
2022/07/02 07:41:22;;;;;;;9.90;1.85;;;19.50;99.90;;;;;;5026293;28;20157;-66
2022/07/02 07:43:49;;;;;;;7.07;2.23;;;19.60;99.90;;;;;;5023988;28;20092;-68
2022/07/02 07:46:15;;;;;;;4.78;1.65;;;19.70;99.90;;;;;;5007853;28;20300;-68
2022/07/02 07:48:41;;;;;;;4.20;1.75;;;19.70;99.90;;;;;;5010162;28;20116;-66
2022/07/02 07:51:07;;;;;;;5.10;2.63;;;19.80;99.90;;;;;;5008620;28;20183;-66
2022/07/02 07:53:33;;;;;;;3.40;1.90;;;19.90;99.90;;;;;;5001458;28;20507;-66
2022/07/02 07:55:59;;;;;;;7.55;2.13;;;19.90;99.90;;;;;;5016284;28;20460;-65
2022/07/02 07:58:25;;;;;;;4.80;1.60;;;20.00;99.90;;;;;;5009088;28;20045;-67
2022/07/02 08:00:50;;;;;;;6.72;1.90;;;20.00;99.90;;;;;;5010606;28;20045;-67
2022/07/02 08:03:18;;;;;;;5.22;1.90;;;20.10;99.90;;;;;;5024047;28;20042;-65
2022/07/02 08:05:47;;;;;;;5.07;1.75;;;20.20;99.90;;;;;;5019528;28;20050;-66
2022/07/02 08:08:14;;;;;;;5.10;1.65;;;20.30;99.90;;;;;;5021519;28;20085;-67
2022/07/02 08:10:41;;;;;;;5.93;1.95;;;20.40;99.90;;;;;;5017597;28;20092;-66
2022/07/02 08:13:12;;;;;;;6.43;1.58;;;20.50;99.90;;;;;;4994134;28;20088;-68
2022/07/02 08:15:37;;;;;;;3.80;1.48;;;20.50;99.90;;;;;;5010144;28;20542;-67
2022/07/02 08:18:03;;;;;;;6.72;1.70;;;20.60;99.90;;;;;;5009859;28;20042;-66
2022/07/02 08:20:29;;;;;;;5.72;1.50;;;20.60;99.90;;;;;;5019055;28;20046;-68
2022/07/02 08:22:55;;;;;;;3.67;1.40;;;20.60;99.90;;;;;;5008296;28;20053;-67
2022/07/02 08:25:20;;;;;;;5.55;1.75;;;20.60;99.90;;;;;;5007968;28;20508;-66
2022/07/02 08:27:50;;;;;;;4.22;1.33;;;20.70;99.90;;;;;;5006048;28;20489;-67
2022/07/02 08:30:16;;;;;;;4.82;1.70;;;20.90;99.90;;;;;;4993222;28;20133;-66
2022/07/02 08:32:42;;;;;;;7.15;1.95;;;21.00;99.90;;;;;;5026527;28;20498;-67
2022/07/02 08:35:08;;;;;;;5.35;1.52;;;21.10;99.90;;;;;;5011495;28;20046;-67
2022/07/02 08:37:34;;;;;;;5.30;1.60;;;21.20;99.90;;;;;;5003126;28;20152;-66
2022/07/02 08:39:59;;;;;;;3.75;1.60;;;21.30;99.40;;;;;;5010255;28;20065;-67
2022/07/02 08:42:28;;;;;;;3.50;1.67;;;21.40;99.90;;;;;;5012271;28;20136;-66
2022/07/02 08:44:56;;;;;;;6.70;2.25;;;21.50;99.60;;;;;;5009968;28;20492;-65
2022/07/02 08:47:23;;;;;;;8.20;1.95;;;21.50;99.00;;;;;;5004361;28;20190;-65
2022/07/02 08:49:52;;;;;;;4.07;1.47;;;21.60;99.50;;;;;;5005000;28;20050;-66
2022/07/02 08:52:20;;;;;;;3.55;1.45;;;21.70;99.50;;;;;;5007838;28;20130;-67
2022/07/02 08:54:47;;;;;;;6.35;1.48;;;21.70;99.00;;;;;;5003457;28;20143;-66
2022/07/02 08:57:14;;;;;;;4.70;1.83;;;21.90;99.40;;;;;;5006031;28;20068;-66
2022/07/02 08:59:40;;;;;;;4.72;1.80;;;22.00;98.30;;;;;;5020340;28;20085;-66
2022/07/02 09:02:07;;;;;;;4.93;1.83;;;22.00;98.10;;;;;;5003766;28;20046;-68
2022/07/02 09:04:34;;;;;;;5.82;1.40;;;22.00;97.70;;;;;;4993501;28;20514;-66
2022/07/02 09:07:03;;;;;;;3.55;1.30;;;22.00;97.30;;;;;;5002509;28;20042;-67
2022/07/02 09:09:30;;;;;;;3.78;1.10;;;22.00;96.80;;;;;;5011993;28;20483;-67
2022/07/02 09:11:57;;;;;;;4.30;1.35;;;22.00;94.20;;;;;;5010710;28;20046;-66
2022/07/02 09:14:23;;;;;;;2.10;0.98;;;21.90;94.50;;;;;;5010813;28;20046;-66
2022/07/02 09:16:50;;;;;;;3.67;1.30;;;21.90;94.60;;;;;;5007230;28;20057;-68
2022/07/02 09:19:17;;;;;;;6.43;1.67;;;22.00;94.80;;;;;;5010957;28;20423;-68
2022/07/02 09:21:50;;;;;;;3.03;1.05;;;22.10;94.30;;;;;;5008612;28;20540;-68
2022/07/02 09:24:37;;;;;;;4.82;1.15;;;22.20;94.50;;;;;;5009799;28;20077;-67
2022/07/02 09:27:06;;;;;;;6.38;1.00;;;22.30;92.40;;;;;;5008613;28;20473;-65
2022/07/02 09:29:52;;;;;;;2.47;0.90;;;22.50;91.80;;;;;;5010742;28;20396;-66
2022/07/02 09:32:19;;;;;;;3.55;1.02;;;22.40;90.90;;;;;;5005235;28;20510;-67
2022/07/02 09:34:47;;;;;;;2.22;0.90;;;22.40;90.90;;;;;;5009494;28;20472;-68
2022/07/02 09:37:17;;;;;;;;;;;22.50;90.50;;;;;;5013033;28;20152;-67
2022/07/02 09:39:43;;;;;;;3.45;1.10;;;22.60;90.20;;;;;;5004858;28;19929;-67
2022/07/02 09:42:26;;;;;;;1.88;0.80;;;22.70;90.40;;;;;;5007844;28;20061;-68
2022/07/02 09:44:52;;;;;;;3.70;1.27;;;22.80;87.20;;;;;;4990846;28;20058;-66
2022/07/02 09:47:33;;;;;;;3.72;1.10;;;22.70;86.40;;;;;;5009094;28;20042;-68
2022/07/02 09:50:03;;;;;;;1.63;0.90;;;22.70;83.30;;;;;;5011313;28;20073;-67
2022/07/02 09:52:29;;;;;;;2.20;1.02;;;22.60;85.30;;;;;;5026686;28;20057;-68
2022/07/02 09:54:55;;;;;;;3.03;1.20;;;22.70;86.10;;;;;;5010175;28;20046;-68
2022/07/02 09:57:21;;;;;;;2.22;0.95;;;22.80;87.20;;;;;;5012012;28;20069;-67
2022/07/02 09:59:49;;;;;;;3.70;1.10;;;22.90;87.20;;;;;;5008317;28;20390;-67
2022/07/02 10:02:23;;;;;;;2.03;0.90;;;23.00;86.30;;;;;;5007301;28;20054;-67
2022/07/02 10:04:53;;;;;;;3.05;1.10;;;23.10;86.60;;;;;;5025404;28;20053;-68
2022/07/02 10:07:23;;;;;;;3.65;1.30;;;23.00;86.90;;;;;;5024718;28;20057;-67
2022/07/02 10:09:51;;;;;;;3.30;1.10;;;23.40;86.30;;;;;;5010150;28;20037;-69
2022/07/02 10:12:20;;;;;;;2.85;1.13;;;23.40;84.80;;;;;;5024019;28;20052;-66
2022/07/02 10:14:47;;;;;;;3.00;1.30;;;23.60;85.10;;;;;;5007182;28;20520;-66
2022/07/02 10:17:15;;;;;;;5.82;1.70;;;23.50;83.20;;;;;;5009104;28;20084;-65
2022/07/02 10:19:41;;;;;;;2.60;1.00;;;23.60;83.30;;;;;;5028173;28;20112;-67
2022/07/02 10:22:08;;;;;;;3.90;1.40;;;23.60;82.20;;;;;;5012036;28;20034;-66
2022/07/02 10:24:34;;;;;;;3.75;1.20;;;23.70;83.30;;;;;;5006161;28;20061;-67
2022/07/02 10:27:01;;;;;;;2.40;1.27;;;23.80;82.30;;;;;;5026345;28;20038;-66
2022/07/02 10:29:28;;;;;;;3.67;1.10;;;23.90;81.90;;;;;;5010006;28;20042;-68
2022/07/02 10:32:14;;;;;;;3.85;0.98;;;23.90;80.50;;;;;;5008413;28;20046;-66
2022/07/02 10:35:11;;;;;;;2.38;1.15;;;24.10;82.10;;;;;;5025415;28;20046;-67
2022/07/02 10:37:40;;;;;;;2.85;0.95;;;24.40;81.10;;;;;;5006267;28;20042;-66
2022/07/02 10:40:07;;;;;;;5.03;1.08;;;24.60;78.90;;;;;;5013151;28;20038;-66
2022/07/02 10:42:40;;;;;;;4.72;1.38;;;24.50;80.20;;;;;;5012574;28;20481;-66
2022/07/02 10:45:14;;;;;;;5.25;1.23;;;24.60;79.00;;;;;;5009991;28;20049;-68
2022/07/02 10:48:02;;;;;;;5.75;1.67;;;24.80;78.40;;;;;;5010800;28;20124;-66
2022/07/02 10:50:34;;;;;;;3.17;1.33;;;24.80;78.50;;;;;;5011141;28;20549;-67
2022/07/02 10:53:08;;;;;;;3.45;1.30;;;24.90;78.90;;;;;;5012917;28;20060;-66
2022/07/02 10:55:34;;;;;;;3.22;1.00;;;25.10;77.30;;;;;;5013732;28;20492;-66
2022/07/02 10:58:02;;;;;;;3.10;1.13;;;25.40;78.70;;;;;;5011117;28;20076;-67
2022/07/02 11:00:32;;;;;;;4.10;1.10;;;25.40;77.40;;;;;;5001848;28;20042;-67
2022/07/02 11:03:09;;;;;;;3.38;1.40;;;25.20;77.70;;;;;;5011640;28;20048;-66
2022/07/02 11:05:35;;;;;;;7.80;1.63;;;25.00;75.50;;;;;;5013773;28;20068;-67
2022/07/02 11:08:01;;;;;;;5.32;1.35;;;24.80;76.10;;;;;;5012498;28;20057;-66
2022/07/02 11:10:27;;;;;;;4.55;1.20;;;24.60;76.70;;;;;;5023738;28;20049;-67
2022/07/02 11:13:00;;;;;;;5.18;1.30;;;24.60;76.00;;;;;;5013622;28;20131;-66
2022/07/02 11:15:35;;;;;;;1.85;0.88;;;24.70;77.30;;;;;;5013286;28;20180;-65
2022/07/02 11:18:05;;;;;;;2.20;1.02;;;25.00;77.50;;;;;;5012894;28;20038;-66
2022/07/02 11:20:37;;;;;;;5.10;1.30;;;25.30;77.00;;;;;;5012700;28;20049;-66
2022/07/02 11:23:03;;;;;;;1.98;0.98;;;25.60;74.80;;;;;;5012482;28;20531;-67
2022/07/02 11:25:30;;;;;;;2.25;0.90;;;25.70;74.10;;;;;;5013081;28;20046;-66
2022/07/02 11:27:58;;;;;;;4.45;1.20;;;26.00;75.30;;;;;;5011745;28;20046;-66
2022/07/02 11:30:30;;;;;;;2.85;1.10;;;26.20;74.40;;;;;;5011261;28;20492;-69
2022/07/02 11:32:55;;;;;;;2.53;1.15;;;26.50;72.00;;;;;;5009857;28;20121;-68
2022/07/02 11:35:21;;;;;;;2.55;1.13;;;26.30;71.90;;;;;;5013270;28;20479;-66
2022/07/02 11:37:47;;;;;;;4.13;1.00;;;26.00;70.70;;;;;;5012701;28;20045;-68
2022/07/02 11:40:21;;;;;;;2.53;1.02;;;25.50;69.60;;;;;;5011771;28;20072;-66
2022/07/02 11:42:47;;;;;;;4.65;1.00;;;25.20;70.40;;;;;;5011468;28;20165;-66
2022/07/02 11:45:13;;;;;;;2.10;0.90;;;25.00;70.50;;;;;;5012756;28;20121;-67
2022/07/02 11:47:47;;;;;;;2.70;1.05;;;24.80;70.70;;;;;;5010100;28;20459;-66
2022/07/02 11:50:13;;;;;;;2.55;1.00;;;24.60;71.00;;;;;;5008945;28;20050;-67
2022/07/02 11:52:42;;;;;;;2.33;1.10;;;24.50;72.50;;;;;;5027968;28;20045;-66
2022/07/02 11:55:16;;;;;;;2.10;1.02;;;24.40;73.10;;;;;;5013175;28;20045;-66
2022/07/02 11:57:43;;;;;;;4.72;1.10;;;24.10;72.30;;;;;;5005252;28;20072;-66
2022/07/02 12:00:10;;;;;;;2.47;0.93;;;24.10;73.60;;;;;;5011650;28;20042;-67
2022/07/02 12:02:40;;;;;;;2.43;1.30;;;24.10;72.70;;;;;;5011379;28;20050;-67
2022/07/02 12:05:19;;;;;;;3.15;1.08;;;24.00;73.50;;;;;;5010791;28;20056;-66
2022/07/02 12:07:46;;;;;;;3.80;1.40;;;23.90;73.00;;;;;;5010468;28;20174;-67
2022/07/02 12:10:13;;;;;;;4.78;1.08;;;23.70;73.80;;;;;;5020765;28;20115;-67
2022/07/02 12:12:39;;;;;;;3.20;1.17;;;23.70;74.10;;;;;;5023636;28;20038;-68
2022/07/02 12:15:06;;;;;;;1.40;0.90;;;23.70;74.30;;;;;;5006170;28;20042;-67
2022/07/02 12:17:35;;;;;;;2.40;0.88;;;23.60;74.60;;;;;;5010711;28;20052;-67
2022/07/02 12:20:05;;;;;;;4.57;1.17;;;23.60;74.70;;;;;;5012286;28;20046;-68
2022/07/02 12:22:33;;;;;;;1.73;0.90;;;23.70;74.40;;;;;;5026170;28;20057;-66
2022/07/02 12:24:59;;;;;;;1.95;1.10;;;23.80;73.60;;;;;;5012919;28;20046;-68
2022/07/02 12:27:25;;;;;;;2.95;0.82;;;23.80;73.20;;;;;;5011953;28;20473;-65
2022/07/02 12:29:54;;;;;;;2.72;1.00;;;23.70;74.80;;;;;;5011805;28;20526;-67
2022/07/02 12:32:31;;;;;;;2.10;1.02;;;23.60;75.80;;;;;;5025622;28;20062;-71
2022/07/02 12:35:03;;;;;;;2.17;1.00;;;23.60;74.20;;;;;;5017076;28;20183;-67
2022/07/02 12:37:37;;;;;;;3.15;1.10;;;23.60;75.00;;;;;;5013267;28;20041;-67
2022/07/02 12:40:11;;;;;;;2.70;1.05;;;23.60;73.90;;;;;;5010747;28;20042;-68
2022/07/02 12:43:05;;;;;;;5.03;1.20;;;23.70;73.30;;;;;;5011208;28;20404;-66
2022/07/02 12:45:33;;;;;;;1.30;0.80;;;23.60;73.70;;;;;;5009717;28;20052;-67
2022/07/02 12:48:02;;;;;;;2.58;1.05;;;23.60;75.20;;;;;;4999660;28;20096;-66
2022/07/02 12:50:36;;;;;;;1.77;0.85;;;23.60;75.20;;;;;;5007788;28;20057;-66